createdAt,value
2022-08-07T00:01:43.559Z,16.2
2022-08-07T00:03:15.931Z,16.1
2022-08-07T00:04:15.938Z,16.1
2022-08-07T00:05:15.956Z,16.1
2022-08-07T00:06:15.927Z,16.2
2022-08-07T00:08:15.925Z,16
2022-08-07T00:09:16.736Z,16
2022-08-07T00:10:27.281Z,16
2022-08-07T00:11:19.965Z,16
2022-08-07T00:12:19.234Z,16.1
2022-08-07T00:15:15.937Z,16.1
2022-08-07T00:16:17.529Z,16.1
2022-08-07T00:18:18.938Z,16.1
2022-08-07T00:19:21.790Z,16
2022-08-07T00:20:15.937Z,15.9
2022-08-07T00:22:24.537Z,15.9
2022-08-07T00:23:17.041Z,15.9
2022-08-07T00:24:15.933Z,16
2022-08-07T00:27:15.931Z,16.2
2022-08-07T00:28:15.929Z,16
2022-08-07T00:29:15.935Z,15.9
2022-08-07T00:30:26.734Z,15.9
2022-08-07T00:31:16.646Z,15.9
2022-08-07T00:32:15.937Z,16
2022-08-07T00:33:15.931Z,16
2022-08-07T00:35:16.663Z,16
2022-08-07T00:36:16.798Z,16
2022-08-07T00:37:15.943Z,16
2022-08-07T00:38:15.929Z,16
2022-08-07T00:40:15.931Z,16
2022-08-07T00:45:16.281Z,16
2022-08-07T00:46:15.933Z,15.9
2022-08-07T00:48:09.410Z,15.9
2022-08-07T00:48:15.935Z,15.9
2022-08-07T00:49:24.768Z,15.9
2022-08-07T00:50:21.527Z,15.9
2022-08-07T00:51:15.943Z,15.9
2022-08-07T00:52:19.825Z,16
2022-08-07T00:53:15.931Z,15.9
2022-08-07T00:54:15.942Z,15.9
2022-08-07T00:56:15.995Z,16
2022-08-07T00:57:15.941Z,16
2022-08-07T00:59:15.936Z,15.9
2022-08-07T01:00:15.938Z,15.8
2022-08-07T01:01:15.984Z,15.8
2022-08-07T01:02:29.132Z,15.8
2022-08-07T01:04:15.938Z,15.7
2022-08-07T01:05:19.218Z,15.7
2022-08-07T01:06:15.937Z,15.7
2022-08-07T01:07:22.146Z,15.8
2022-08-07T01:10:05.987Z,15.8
2022-08-07T01:10:15.936Z,15.6
2022-08-07T01:12:04.969Z,15.6
2022-08-07T01:12:29.290Z,15.7
2022-08-07T01:13:16.305Z,15.7
2022-08-07T01:14:16.725Z,15.7
2022-08-07T01:15:17.704Z,15.7
2022-08-07T01:17:15.936Z,15.6
2022-08-07T01:18:17.155Z,15.6
2022-08-07T01:19:19.205Z,15.5
2022-08-07T01:20:16.565Z,15.5
2022-08-07T01:21:22.801Z,15.6
2022-08-07T01:22:22.520Z,15.4
2022-08-07T01:25:54.326Z,15.4
2022-08-07T01:26:16.733Z,15.4
2022-08-07T01:27:19.971Z,15.4
2022-08-07T01:28:15.942Z,15.5
2022-08-07T01:29:15.942Z,15.5
2022-08-07T01:30:15.944Z,15.5
2022-08-07T01:31:17.990Z,15.6
2022-08-07T01:32:15.946Z,15.5
2022-08-07T01:33:15.947Z,15.4
2022-08-07T01:34:15.947Z,15.5
2022-08-07T01:35:17.326Z,15.5
2022-08-07T01:36:16.886Z,15.5
2022-08-07T01:37:15.944Z,15.5
2022-08-07T01:38:15.950Z,15.5
2022-08-07T01:39:16.005Z,15.5
2022-08-07T01:40:15.939Z,15.5
2022-08-07T01:41:26.181Z,15.4
2022-08-07T01:42:40.219Z,15.5
2022-08-07T01:44:15.947Z,15.5
2022-08-07T01:46:15.947Z,15.5
2022-08-07T01:48:18.866Z,15.5
2022-08-07T01:49:15.954Z,15.5
2022-08-07T01:50:15.952Z,15.4
2022-08-07T01:52:01.227Z,15.4
2022-08-07T01:52:15.950Z,15.4
2022-08-07T01:53:21.119Z,15.4
2022-08-07T01:54:33.310Z,15.4
2022-08-07T01:55:22.163Z,15.4
2022-08-07T01:57:24.615Z,15.4
2022-08-07T01:58:28.953Z,15.3
2022-08-07T01:59:16.042Z,15.3
2022-08-07T02:01:25.537Z,15.3
2022-08-07T02:05:43.457Z,15.2
2022-08-07T02:06:31.851Z,15.2
2022-08-07T02:08:15.954Z,15.3
2022-08-07T02:10:15.994Z,15.2
2022-08-07T02:11:30.728Z,15.3
2022-08-07T02:13:15.953Z,15.3
2022-08-07T02:14:40.226Z,15.4
2022-08-07T02:15:15.953Z,15.3
2022-08-07T02:16:16.053Z,15.3
2022-08-07T02:18:15.954Z,15.3
2022-08-07T02:20:19.821Z,15.3
2022-08-07T02:21:16.379Z,15
2022-08-07T02:22:18.581Z,14.9
2022-08-07T02:23:15.950Z,15
2022-08-07T02:24:17.764Z,15
2022-08-07T02:26:33.865Z,15
2022-08-07T02:27:15.954Z,15
2022-08-07T02:28:24.403Z,15
2022-08-07T02:29:15.956Z,15
2022-08-07T02:31:28.171Z,14.8
2022-08-07T02:32:15.952Z,14.9
2022-08-07T02:33:15.951Z,15
2022-08-07T02:34:17.269Z,15
2022-08-07T02:35:20.351Z,15
2022-08-07T02:39:43.308Z,14.9
2022-08-07T02:40:30.832Z,14.9
2022-08-07T02:41:21.828Z,15
2022-08-07T02:46:00.962Z,15.1
2022-08-07T02:47:19.761Z,15.1
2022-08-07T02:48:15.995Z,15
2022-08-07T02:49:29.125Z,15
2022-08-07T02:50:15.960Z,15.1
2022-08-07T02:52:15.964Z,15.1
2022-08-07T02:53:15.953Z,15.1
2022-08-07T02:54:15.965Z,15.1
2022-08-07T02:55:28.359Z,15.2
2022-08-07T02:56:21.067Z,15.1
2022-08-07T02:57:15.960Z,15.1
2022-08-07T02:58:15.955Z,15.1
2022-08-07T03:00:15.953Z,15
2022-08-07T03:01:19.218Z,15
2022-08-07T03:02:16.004Z,15
2022-08-07T03:03:22.761Z,15
2022-08-07T03:04:15.957Z,15
2022-08-07T03:05:20.711Z,15
2022-08-07T03:06:16.342Z,14.9
2022-08-07T03:08:15.960Z,14.8
2022-08-07T03:09:44.572Z,14.7
2022-08-07T03:10:15.960Z,14.6
2022-08-07T03:11:15.965Z,14.6
2022-08-07T03:14:15.953Z,14.4
2022-08-07T03:15:15.956Z,14.4
2022-08-07T03:16:15.964Z,14.5
2022-08-07T03:17:15.964Z,14.6
2022-08-07T03:19:15.965Z,14.6
2022-08-07T03:21:18.900Z,14.7
2022-08-07T03:22:18.817Z,14.7
2022-08-07T03:26:21.284Z,14.8
2022-08-07T03:27:15.967Z,14.8
2022-08-07T03:28:36.941Z,14.7
2022-08-07T03:29:15.961Z,14.7
2022-08-07T03:31:15.965Z,14.8
2022-08-07T03:32:15.957Z,14.8
2022-08-07T03:33:16.639Z,14.8
2022-08-07T03:34:18.566Z,14.7
2022-08-07T03:36:15.976Z,14.7
2022-08-07T03:38:15.974Z,14.8
2022-08-07T03:39:16.014Z,14.8
2022-08-07T03:40:17.046Z,14.8
2022-08-07T03:41:15.979Z,14.8
2022-08-07T03:42:15.961Z,14.7
2022-08-07T03:44:15.959Z,14.8
2022-08-07T03:45:30.113Z,14.7
2022-08-07T03:47:15.961Z,14.7
2022-08-07T03:48:15.963Z,14.7
2022-08-07T03:49:16.651Z,14.6
2022-08-07T03:50:15.969Z,14.5
2022-08-07T03:51:15.961Z,14.6
2022-08-07T03:52:22.588Z,14.5
2022-08-07T03:53:15.974Z,14.6
2022-08-07T03:55:15.971Z,14.6
2022-08-07T03:56:15.970Z,14.6
2022-08-07T03:58:34.484Z,14.7
2022-08-07T03:59:05.735Z,14.7
2022-08-07T03:59:16.232Z,14.6
2022-08-07T04:00:15.979Z,14.6
2022-08-07T04:01:16.005Z,14.6
2022-08-07T04:04:17.285Z,14.7
2022-08-07T04:05:15.967Z,14.6
2022-08-07T04:07:35.976Z,14.6
2022-08-07T04:08:18.660Z,14.7
2022-08-07T04:09:16.284Z,14.6
2022-08-07T04:10:19.610Z,14.6
2022-08-07T04:12:23.770Z,14.6
2022-08-07T04:12:26.380Z,14.5
2022-08-07T04:13:15.969Z,14.5
2022-08-07T04:14:37.616Z,14.5
2022-08-07T04:16:15.970Z,14.3
2022-08-07T04:17:21.344Z,14.2
2022-08-07T04:18:57.613Z,14.2
2022-08-07T04:19:16.308Z,14.3
2022-08-07T04:21:16.675Z,14.3
2022-08-07T04:22:17.861Z,14.4
2022-08-07T04:23:19.191Z,14.4
2022-08-07T04:24:30.499Z,14.3
2022-08-07T04:25:15.972Z,14.3
2022-08-07T04:26:16.840Z,14.3
2022-08-07T04:27:25.419Z,14.3
2022-08-07T04:28:16.002Z,14.4
2022-08-07T04:29:16.270Z,14.4
2022-08-07T04:30:21.592Z,14.5
2022-08-07T04:31:19.803Z,14.4
2022-08-07T04:32:15.977Z,14.4
2022-08-07T04:33:16.023Z,14.5
2022-08-07T04:35:15.973Z,14.5
2022-08-07T04:36:15.975Z,14.5
2022-08-07T04:37:20.439Z,14.5
2022-08-07T04:38:15.974Z,14.5
2022-08-07T04:40:15.973Z,14.6
2022-08-07T04:41:19.049Z,14.6
2022-08-07T04:43:15.987Z,14.6
2022-08-07T04:45:18.637Z,14.6
2022-08-07T04:46:20.103Z,14.5
2022-08-07T04:48:16.237Z,14.4
2022-08-07T04:49:18.415Z,14.4
2022-08-07T04:50:15.980Z,14.5
2022-08-07T04:51:15.979Z,14.4
2022-08-07T04:52:18.376Z,14.5
2022-08-07T04:53:27.627Z,14.4
2022-08-07T04:54:15.980Z,14.4
2022-08-07T04:58:11.093Z,14.5
2022-08-07T04:58:11.259Z,14.5
2022-08-07T04:58:12.005Z,14.5
2022-08-07T05:00:07.850Z,14.5
2022-08-07T05:00:18.663Z,14.5
2022-08-07T05:01:18.111Z,14.6
2022-08-07T05:02:16.808Z,14.6
2022-08-07T05:03:17.192Z,14.6
2022-08-07T05:04:17.884Z,14.7
2022-08-07T05:05:52.791Z,14.8
2022-08-07T05:06:19.375Z,14.8
2022-08-07T05:07:20.488Z,14.8
2022-08-07T05:08:15.975Z,14.8
2022-08-07T05:09:15.983Z,14.8
2022-08-07T05:10:15.979Z,14.8
2022-08-07T05:11:19.492Z,14.8
2022-08-07T05:12:27.181Z,14.8
2022-08-07T05:14:52.110Z,14.9
2022-08-07T05:14:55.284Z,14.9
2022-08-07T05:15:15.999Z,15
2022-08-07T05:16:15.985Z,15
2022-08-07T05:17:50.101Z,15
2022-08-07T05:18:15.982Z,15
2022-08-07T05:19:15.976Z,15
2022-08-07T05:20:15.987Z,15
2022-08-07T05:21:25.262Z,15
2022-08-07T05:22:26.819Z,15.1
2022-08-07T05:25:25.527Z,15.5
2022-08-07T05:26:23.646Z,15.9
2022-08-07T05:28:16.120Z,16.5
2022-08-07T05:28:23.069Z,17.2
2022-08-07T05:29:15.973Z,17.8
2022-08-07T05:30:15.982Z,18.4
2022-08-07T05:31:16.786Z,19
2022-08-07T05:32:15.994Z,19.5
2022-08-07T05:34:15.986Z,20.3
2022-08-07T05:36:22.503Z,20.9
2022-08-07T05:37:15.984Z,21.1
2022-08-07T05:40:05.889Z,21.5
2022-08-07T05:40:18.518Z,21.6
2022-08-07T05:41:16.931Z,21.8
2022-08-07T05:42:16.026Z,21.9
2022-08-07T05:43:15.982Z,22
2022-08-07T05:44:16.009Z,22
2022-08-07T05:45:46.931Z,22.1
2022-08-07T05:46:16.028Z,22.2
2022-08-07T05:47:17.990Z,22.2
2022-08-07T05:48:16.577Z,22.3
2022-08-07T05:49:15.986Z,22.3
2022-08-07T05:50:15.987Z,22.3
2022-08-07T05:51:16.046Z,22.2
2022-08-07T05:52:15.988Z,22.3
2022-08-07T05:54:13.570Z,22.4
2022-08-07T05:54:30.331Z,22.3
2022-08-07T05:55:15.988Z,22.4
2022-08-07T05:56:16.194Z,22.6
2022-08-07T05:57:15.986Z,22.6
2022-08-07T05:58:15.994Z,22.7
2022-08-07T05:59:15.998Z,22.8
2022-08-07T06:00:17.748Z,22.8
2022-08-07T06:01:16.026Z,23
2022-08-07T06:03:16.044Z,23
2022-08-07T06:04:17.457Z,23.2
2022-08-07T06:05:16.144Z,23.2
2022-08-07T06:06:17.279Z,23.3
2022-08-07T06:07:22.913Z,23.5
2022-08-07T06:09:15.995Z,23.7
2022-08-07T06:10:15.996Z,23.7
2022-08-07T06:11:16.000Z,24
2022-08-07T06:12:15.993Z,24.1
2022-08-07T06:14:21.402Z,24.3
2022-08-07T06:15:20.313Z,24.1
2022-08-07T06:16:15.998Z,24.4
2022-08-07T06:17:15.991Z,24.7
2022-08-07T06:18:15.995Z,24.9
2022-08-07T06:19:17.715Z,24.9
2022-08-07T06:20:31.825Z,25.2
2022-08-07T06:22:23.322Z,25.1
2022-08-07T06:23:45.813Z,25.2
2022-08-07T06:24:45.589Z,25.5
2022-08-07T06:25:16.000Z,25.9
2022-08-07T06:26:15.993Z,26
2022-08-07T06:27:22.712Z,26.1
2022-08-07T06:29:15.995Z,26.1
2022-08-07T06:30:32.161Z,26.2
2022-08-07T06:31:16.004Z,26.2
2022-08-07T06:32:16.000Z,26.2
2022-08-07T06:33:16.779Z,26.3
2022-08-07T06:34:16.000Z,26.8
2022-08-07T06:35:17.947Z,27
2022-08-07T06:36:16.018Z,27.1
2022-08-07T06:37:17.212Z,27.2
2022-08-07T06:38:20.131Z,27.1
2022-08-07T06:40:16.343Z,26.6
2022-08-07T06:40:21.015Z,26.8
2022-08-07T06:41:16.058Z,26.6
2022-08-07T06:42:16.022Z,26.4
2022-08-07T06:46:31.146Z,26.2
2022-08-07T06:47:16.014Z,26.2
2022-08-07T06:48:16.003Z,26.1
2022-08-07T06:49:16.012Z,26.1
2022-08-07T06:50:16.006Z,26
2022-08-07T06:51:16.004Z,25.9
2022-08-07T06:52:16.014Z,25.8
2022-08-07T06:53:49.282Z,25.7
2022-08-07T06:55:32.082Z,25.4
2022-08-07T06:55:34.391Z,25.5
2022-08-07T06:56:16.075Z,25.6
2022-08-07T06:57:16.008Z,25.6
2022-08-07T07:00:14.271Z,26
2022-08-07T07:00:18.437Z,26.2
2022-08-07T07:01:16.030Z,26.3
2022-08-07T07:02:49.266Z,26.4
2022-08-07T07:03:17.303Z,26.5
2022-08-07T07:04:27.965Z,26.5
2022-08-07T07:06:04.356Z,26.8
2022-08-07T07:06:16.012Z,26.5
2022-08-07T07:07:19.244Z,26.6
2022-08-07T07:08:18.519Z,26.8
2022-08-07T07:09:16.015Z,26.9
2022-08-07T07:10:16.008Z,26.4
2022-08-07T07:12:08.519Z,26.5
2022-08-07T07:13:16.014Z,27.2
2022-08-07T07:14:16.014Z,27.6
2022-08-07T07:15:26.414Z,27.7
2022-08-07T07:16:18.049Z,27.7
2022-08-07T07:17:16.352Z,28
2022-08-07T07:19:56.309Z,28.1
2022-08-07T07:21:19.509Z,28.1
2022-08-07T07:22:36.787Z,28.2
2022-08-07T07:24:16.020Z,28.2
2022-08-07T07:26:34.831Z,28
2022-08-07T07:27:16.025Z,28
2022-08-07T07:28:42.800Z,27.6
2022-08-07T07:29:39.656Z,27.7
2022-08-07T07:30:26.286Z,27.6
2022-08-07T07:31:17.216Z,27.6
2022-08-07T07:32:16.020Z,27.3
2022-08-07T07:33:16.017Z,27
2022-08-07T07:34:16.024Z,27.3
2022-08-07T07:35:16.019Z,27.3
2022-08-07T07:36:17.322Z,27
2022-08-07T07:37:44.333Z,26.8
2022-08-07T07:38:16.026Z,27.1
2022-08-07T07:39:16.097Z,27.2
2022-08-07T07:40:16.097Z,27.3
2022-08-07T07:41:16.030Z,27.3
2022-08-07T07:42:17.658Z,27.3
2022-08-07T07:43:18.833Z,27.2
2022-08-07T07:44:21.646Z,27.2
2022-08-07T07:46:37.237Z,27.2
2022-08-07T07:47:23.840Z,27.3
2022-08-07T07:48:24.147Z,27.2
2022-08-07T07:50:16.031Z,26.8
2022-08-07T07:50:34.692Z,27.1
2022-08-07T07:51:16.040Z,26.8
2022-08-07T07:52:16.442Z,26.8
2022-08-07T07:53:23.061Z,26.8
2022-08-07T07:54:16.021Z,26.9
2022-08-07T07:55:16.023Z,26.7
2022-08-07T07:56:16.031Z,26.4
2022-08-07T07:58:16.036Z,26.5
2022-08-07T07:59:16.028Z,26.7
2022-08-07T08:00:29.063Z,26.7
2022-08-07T08:02:03.892Z,26.6
2022-08-07T08:04:16.055Z,26.7
2022-08-07T08:05:16.027Z,26.7
2022-08-07T08:06:16.031Z,26.8
2022-08-07T08:07:20.140Z,26.4
2022-08-07T08:08:35.374Z,26.4
2022-08-07T08:09:16.036Z,26.2
2022-08-07T08:10:37.786Z,26.3
2022-08-07T08:11:18.209Z,26.2
2022-08-07T08:13:16.035Z,26.1
2022-08-07T08:14:16.030Z,26
2022-08-07T08:16:16.030Z,25.7
2022-08-07T08:17:57.333Z,25.3
2022-08-07T08:18:17.873Z,25.2
2022-08-07T08:20:15.762Z,25.4
2022-08-07T08:20:23.911Z,25.5
2022-08-07T08:21:16.032Z,25.5
2022-08-07T08:22:16.063Z,25.4
2022-08-07T08:23:16.039Z,25.4
2022-08-07T08:24:36.070Z,25.4
2022-08-07T08:25:24.974Z,25.4
2022-08-07T08:26:16.031Z,25.4
2022-08-07T08:27:26.979Z,25.6
2022-08-07T08:28:16.931Z,25.6
2022-08-07T08:29:16.055Z,25.7
2022-08-07T08:30:17.482Z,25.8
2022-08-07T08:31:18.331Z,25.9
2022-08-07T08:32:18.662Z,25.9
2022-08-07T08:33:16.868Z,26
2022-08-07T08:35:16.038Z,25.8
2022-08-07T08:36:16.061Z,25.7
2022-08-07T08:38:01.507Z,25.7
2022-08-07T08:39:16.091Z,25.6
2022-08-07T08:40:16.295Z,25.6
2022-08-07T08:41:16.809Z,25.4
2022-08-07T08:42:16.041Z,25.4
2022-08-07T08:43:16.197Z,25.2
2022-08-07T08:45:16.063Z,25.2
2022-08-07T08:46:16.045Z,25.2
2022-08-07T08:47:17.156Z,25.2
2022-08-07T08:48:16.039Z,25.1
2022-08-07T08:49:16.053Z,25
2022-08-07T08:50:28.334Z,25.1
2022-08-07T08:51:26.297Z,24.9
2022-08-07T08:52:16.725Z,24.8
2022-08-07T08:53:16.600Z,25
2022-08-07T08:54:16.045Z,25.1
2022-08-07T08:55:21.299Z,25.1
2022-08-07T08:56:16.987Z,25.3
2022-08-07T08:57:16.344Z,25.4
2022-08-07T08:58:24.744Z,25.4
2022-08-07T08:59:16.415Z,25.3
2022-08-07T09:00:16.045Z,25.3
2022-08-07T09:01:18.437Z,25.2
2022-08-07T09:03:16.065Z,25.3
2022-08-07T09:04:16.051Z,25.3
2022-08-07T09:05:16.049Z,25.3
2022-08-07T09:06:16.053Z,25.4
2022-08-07T09:08:17.783Z,25.3
2022-08-07T09:09:23.695Z,25.3
2022-08-07T09:10:16.060Z,25
2022-08-07T09:11:24.858Z,24.9
2022-08-07T09:12:30.292Z,25.2
2022-08-07T09:13:16.056Z,25
2022-08-07T09:14:16.108Z,25.1
2022-08-07T09:16:23.873Z,25.1
2022-08-07T09:16:24.885Z,25.1
2022-08-07T09:17:16.062Z,24.9
2022-08-07T09:18:22.131Z,24.8
2022-08-07T09:19:50.626Z,24.7
2022-08-07T09:20:35.821Z,24.7
2022-08-07T09:21:57.930Z,24.6
2022-08-07T09:24:27.327Z,24.5
2022-08-07T09:25:17.837Z,24.9
2022-08-07T09:26:17.217Z,25
2022-08-07T09:27:16.066Z,24.9
2022-08-07T09:30:04.469Z,25
2022-08-07T09:30:07.578Z,25
2022-08-07T09:30:16.180Z,25
2022-08-07T09:32:17.305Z,25.1
2022-08-07T09:33:24.500Z,24.9
2022-08-07T09:34:16.070Z,25
2022-08-07T09:36:16.083Z,24.8
2022-08-07T09:37:16.088Z,24.9
2022-08-07T09:38:23.279Z,25
2022-08-07T09:39:27.459Z,25.1
2022-08-07T09:40:17.934Z,25.2
2022-08-07T09:42:17.257Z,25.1
2022-08-07T09:43:17.974Z,25.2
2022-08-07T09:44:30.075Z,25.3
2022-08-07T09:47:24.046Z,24.8
2022-08-07T09:47:52.544Z,25
2022-08-07T09:48:19.332Z,24.7
2022-08-07T09:50:01.739Z,25
2022-08-07T09:50:19.259Z,24.9
2022-08-07T09:52:16.848Z,25.1
2022-08-07T09:52:34.526Z,25.1
2022-08-07T09:53:16.064Z,25.3
2022-08-07T09:54:16.374Z,25.5
2022-08-07T09:55:17.400Z,25.6
2022-08-07T09:56:19.695Z,25.7
2022-08-07T09:57:16.064Z,25.5
2022-08-07T09:58:16.069Z,25.4
2022-08-07T09:59:16.072Z,25.6
2022-08-07T10:01:23.294Z,25.5
2022-08-07T10:02:16.069Z,25.6
2022-08-07T10:04:05.400Z,25.5
2022-08-07T10:04:16.182Z,25.4
2022-08-07T10:06:17.693Z,25.5
2022-08-07T10:07:25.741Z,25.5
2022-08-07T10:08:16.113Z,25.7
2022-08-07T10:09:16.144Z,25.9
2022-08-07T10:10:21.328Z,25.9
2022-08-07T10:11:16.906Z,25.7
2022-08-07T10:12:21.498Z,25.8
2022-08-07T10:14:16.068Z,26
2022-08-07T10:15:18.601Z,26.1
2022-08-07T10:16:16.067Z,26.1
2022-08-07T10:17:16.565Z,26
2022-08-07T10:18:16.651Z,26.1
2022-08-07T10:19:16.077Z,26
2022-08-07T10:20:16.138Z,26.1
2022-08-07T10:22:17.134Z,25.8
2022-08-07T10:24:21.332Z,25.9
2022-08-07T10:25:16.077Z,26
2022-08-07T10:26:16.073Z,25.9
2022-08-07T10:27:16.072Z,26.1
2022-08-07T10:28:16.102Z,26.1
2022-08-07T10:29:16.119Z,26.1
2022-08-07T10:30:16.076Z,26.2
2022-08-07T10:31:16.074Z,26.3
2022-08-07T10:32:36.403Z,26.2
2022-08-07T10:33:16.081Z,26.3
2022-08-07T10:34:18.494Z,26.3
2022-08-07T10:35:16.567Z,26.3
2022-08-07T10:36:17.104Z,26.2
2022-08-07T10:37:16.081Z,26.4
2022-08-07T10:39:16.144Z,26.2
2022-08-07T10:40:16.144Z,26.1
2022-08-07T10:41:16.086Z,26.1
2022-08-07T10:42:21.405Z,26.1
2022-08-07T10:43:16.075Z,26.1
2022-08-07T10:44:16.080Z,26.1
2022-08-07T10:45:16.536Z,26.1
2022-08-07T10:46:16.105Z,26.1
2022-08-07T10:48:16.096Z,26.1
2022-08-07T10:49:16.090Z,26.2
2022-08-07T10:50:18.806Z,26.2
2022-08-07T10:51:16.703Z,26.2
2022-08-07T10:53:21.295Z,26
2022-08-07T10:54:16.083Z,25.8
2022-08-07T10:55:27.050Z,25.9
2022-08-07T10:56:20.775Z,26.1
2022-08-07T10:57:16.081Z,26.1
2022-08-07T10:58:16.461Z,26
2022-08-07T10:59:21.250Z,26.1
2022-08-07T11:00:36.460Z,26
2022-08-07T11:01:16.119Z,26.2
2022-08-07T11:02:33.429Z,26.2
2022-08-07T11:04:31.384Z,26.4
2022-08-07T11:05:16.082Z,26.4
2022-08-07T11:06:18.525Z,26.3
2022-08-07T11:07:56.890Z,26.2
2022-08-07T11:08:16.458Z,26
2022-08-07T11:10:07.661Z,26
2022-08-07T11:10:16.097Z,26.1
2022-08-07T11:11:20.123Z,26.1
2022-08-07T11:12:31.760Z,26.1
2022-08-07T11:13:42.522Z,26.1
2022-08-07T11:14:43.469Z,26
2022-08-07T11:15:17.707Z,25.8
2022-08-07T11:16:16.118Z,26
2022-08-07T11:17:23.435Z,26.1
2022-08-07T11:18:17.814Z,26.2
2022-08-07T11:19:21.358Z,26.3
2022-08-07T11:20:16.098Z,26.3
2022-08-07T11:21:16.098Z,26.3
2022-08-07T11:23:20.822Z,26.7
2022-08-07T11:25:16.097Z,27.1
2022-08-07T11:27:16.091Z,27.2
2022-08-07T11:29:42.856Z,26.9
2022-08-07T11:33:16.092Z,26.6
2022-08-07T11:34:16.482Z,26.8
2022-08-07T11:35:16.651Z,26.9
2022-08-07T11:36:16.105Z,26.7
2022-08-07T11:38:17.514Z,26.7
2022-08-07T11:39:20.005Z,26.8
2022-08-07T11:40:19.859Z,26.8
2022-08-07T11:41:22.298Z,26.7
2022-08-07T11:42:18.578Z,26.9
2022-08-07T11:43:16.104Z,26.9
2022-08-07T11:44:18.648Z,26.9
2022-08-07T11:45:16.106Z,27
2022-08-07T11:46:16.991Z,27.1
2022-08-07T11:47:16.142Z,27
2022-08-07T11:48:29.162Z,26.8
2022-08-07T11:49:50.152Z,26.8
2022-08-07T11:50:30.771Z,26.9
2022-08-07T11:51:45.046Z,26.8
2022-08-07T11:52:16.111Z,26.4
2022-08-07T11:53:16.112Z,26.3
2022-08-07T11:55:18.873Z,26.6
2022-08-07T11:56:26.572Z,26.6
2022-08-07T11:57:16.105Z,26.5
2022-08-07T11:58:16.561Z,26.7
2022-08-07T12:00:08.346Z,26.8
2022-08-07T12:00:19.626Z,26.6
2022-08-07T12:01:20.217Z,26.6
2022-08-07T12:02:20.689Z,26.5
2022-08-07T12:03:42.179Z,26.5
2022-08-07T12:04:16.111Z,26.6
2022-08-07T12:05:28.869Z,26.7
2022-08-07T12:06:39.248Z,26.8
2022-08-07T12:07:20.305Z,26.8
2022-08-07T12:09:23.251Z,26.7
2022-08-07T12:10:16.163Z,26.7
2022-08-07T12:11:21.413Z,26.4
2022-08-07T12:12:16.122Z,26.4
2022-08-07T12:14:16.113Z,26.5
2022-08-07T12:16:16.120Z,26.5
2022-08-07T12:17:19.806Z,26.3
2022-08-07T12:18:16.146Z,26.5
2022-08-07T12:19:21.693Z,26.3
2022-08-07T12:20:20.955Z,26.3
2022-08-07T12:21:16.117Z,26.3
2022-08-07T12:22:39.162Z,26.5
2022-08-07T12:23:16.152Z,26.6
2022-08-07T12:24:38.030Z,26.5
2022-08-07T12:26:00.252Z,26.5
2022-08-07T12:26:28.576Z,26.5
2022-08-07T12:27:16.676Z,26.7
2022-08-07T12:29:16.119Z,27.1
2022-08-07T12:30:16.123Z,27.1
2022-08-07T12:31:17.381Z,27.1
2022-08-07T12:32:16.125Z,27.2
2022-08-07T12:33:18.882Z,26.9
2022-08-07T12:34:16.122Z,27.1
2022-08-07T12:35:16.121Z,26.5
2022-08-07T12:37:16.936Z,26.8
2022-08-07T12:38:36.706Z,26.8
2022-08-07T12:39:43.348Z,26.6
2022-08-07T12:40:44.123Z,27
2022-08-07T12:41:16.203Z,27
2022-08-07T12:42:16.133Z,27
2022-08-07T12:44:02.348Z,26.9
2022-08-07T12:44:17.410Z,26.9
2022-08-07T12:46:26.617Z,26.9
2022-08-07T12:47:30.996Z,26.8
2022-08-07T12:48:28.377Z,26.8
2022-08-07T12:49:39.563Z,26.8
2022-08-07T12:50:38.443Z,26.9
2022-08-07T12:51:17.250Z,26.9
2022-08-07T12:53:18.192Z,27.2
2022-08-07T12:54:37.498Z,26.8
2022-08-07T12:55:16.529Z,26.9
2022-08-07T12:56:16.131Z,26.7
2022-08-07T12:57:16.587Z,26.5
2022-08-07T12:58:16.171Z,26.6
2022-08-07T12:59:20.480Z,26.7
2022-08-07T13:00:16.616Z,26.8
2022-08-07T13:01:16.184Z,26.8
2022-08-07T13:02:16.145Z,26.7
2022-08-07T13:03:26.997Z,26.7
2022-08-07T13:06:03.305Z,26.6
2022-08-07T13:06:21.414Z,26.7
2022-08-07T13:08:12.845Z,26.8
2022-08-07T13:08:18.741Z,26.7
2022-08-07T13:10:10.102Z,26.7
2022-08-07T13:10:37.711Z,26.8
2022-08-07T13:11:16.471Z,27
2022-08-07T13:12:16.160Z,27
2022-08-07T13:13:48.122Z,26.8
2022-08-07T13:14:16.134Z,27
2022-08-07T13:15:23.645Z,27
2022-08-07T13:16:16.146Z,27
2022-08-07T13:17:18.356Z,26.9
2022-08-07T13:20:16.144Z,26.9
2022-08-07T13:21:37.181Z,26.7
2022-08-07T13:22:19.757Z,26.6
2022-08-07T13:24:01.872Z,26.5
2022-08-07T13:26:18.218Z,26.2
2022-08-07T13:27:20.525Z,26.3
2022-08-07T13:28:18.562Z,26.2
2022-08-07T13:29:16.150Z,26.3
2022-08-07T13:30:18.929Z,26.3
2022-08-07T13:32:32.523Z,26.3
2022-08-07T13:33:16.604Z,26.4
2022-08-07T13:35:16.136Z,26.4
2022-08-07T13:36:17.756Z,26.4
2022-08-07T13:37:19.951Z,26.5
2022-08-07T13:38:16.145Z,26.5
2022-08-07T13:39:28.211Z,26.4
2022-08-07T13:40:36.275Z,26.6
2022-08-07T13:41:16.226Z,26.5
2022-08-07T13:42:21.406Z,26.7
2022-08-07T13:43:16.307Z,26.6
2022-08-07T13:44:16.143Z,26.5
2022-08-07T13:46:07.891Z,26.5
2022-08-07T13:46:24.909Z,26.5
2022-08-07T13:47:21.717Z,26.4
2022-08-07T13:48:27.504Z,26.4
2022-08-07T13:50:34.440Z,26.6
2022-08-07T13:51:26.810Z,26.6
2022-08-07T13:53:16.158Z,26.6
2022-08-07T13:54:22.477Z,26.6
2022-08-07T13:55:19.548Z,26.7
2022-08-07T13:56:16.150Z,26.7
2022-08-07T13:57:23.802Z,26.7
2022-08-07T13:58:20.442Z,26.8
2022-08-07T13:59:16.151Z,26.7
2022-08-07T14:01:16.152Z,26.7
2022-08-07T14:02:16.602Z,26.7
2022-08-07T14:03:16.152Z,26.6
2022-08-07T14:04:16.174Z,26.6
2022-08-07T14:06:16.154Z,26.5
2022-08-07T14:07:16.154Z,26.4
2022-08-07T14:09:17.132Z,26.2
2022-08-07T14:10:23.130Z,26.2
2022-08-07T14:11:18.937Z,26.2
2022-08-07T14:12:16.159Z,26.1
2022-08-07T14:14:16.163Z,26.4
2022-08-07T14:15:16.152Z,26.4
2022-08-07T14:18:12.948Z,26.5
2022-08-07T14:18:28.963Z,26.6
2022-08-07T14:19:17.783Z,26.6
2022-08-07T14:20:43.458Z,26.6
2022-08-07T14:22:02.486Z,26.5
2022-08-07T14:22:34.372Z,26.5
2022-08-07T14:23:18.059Z,26.1
2022-08-07T14:25:16.161Z,25.8
2022-08-07T14:28:12.861Z,25.7
2022-08-07T14:28:16.155Z,25.6
2022-08-07T14:30:06.275Z,25.7
2022-08-07T14:30:32.366Z,25.7
2022-08-07T14:31:16.159Z,25.8
2022-08-07T14:32:16.156Z,25.8
2022-08-07T14:33:16.167Z,25.8
2022-08-07T14:34:19.988Z,25.7
2022-08-07T14:35:16.165Z,25.6
2022-08-07T14:36:16.161Z,25.5
2022-08-07T14:37:16.847Z,25.3
2022-08-07T14:38:26.600Z,25.2
2022-08-07T14:40:15.701Z,25.1
2022-08-07T14:40:26.362Z,25.1
2022-08-07T14:41:16.172Z,25.2
2022-08-07T14:42:20.640Z,25.2
2022-08-07T14:43:56.943Z,25.2
2022-08-07T14:44:16.167Z,25.2
2022-08-07T14:45:22.183Z,25.4
2022-08-07T14:46:17.458Z,25.3
2022-08-07T14:47:16.540Z,25.2
2022-08-07T14:48:19.812Z,25.3
2022-08-07T14:49:56.057Z,25.2
2022-08-07T14:50:16.179Z,25.3
2022-08-07T14:52:16.907Z,25.3
2022-08-07T14:53:16.171Z,25.2
2022-08-07T14:56:16.172Z,25.3
2022-08-07T14:57:54.911Z,25.2
2022-08-07T14:58:24.009Z,25.2
2022-08-07T15:00:05.237Z,25.2
2022-08-07T15:00:20.766Z,25.2
2022-08-07T15:01:21.934Z,25
2022-08-07T15:02:31.871Z,25.1
2022-08-07T15:03:19.804Z,25
2022-08-07T15:04:16.169Z,25
2022-08-07T15:05:20.244Z,25
2022-08-07T15:06:16.185Z,25
2022-08-07T15:07:17.547Z,25
2022-08-07T15:08:16.176Z,25
2022-08-07T15:09:57.643Z,24.9
2022-08-07T15:11:16.442Z,24.9
2022-08-07T15:12:26.188Z,24.9
2022-08-07T15:13:16.177Z,24.9
2022-08-07T15:14:16.175Z,24.9
2022-08-07T15:15:21.290Z,24.9
2022-08-07T15:16:31.016Z,24.9
2022-08-07T15:17:16.634Z,24.9
2022-08-07T15:20:31.774Z,24.9
2022-08-07T15:21:45.152Z,24.9
2022-08-07T15:22:29.507Z,24.9
2022-08-07T15:23:20.108Z,24.9
2022-08-07T15:25:14.523Z,24.8
2022-08-07T15:26:21.233Z,24.8
2022-08-07T15:27:16.180Z,24.6
2022-08-07T15:28:35.178Z,24.8
2022-08-07T15:30:16.878Z,24.8
2022-08-07T15:31:58.087Z,24.7
2022-08-07T15:32:16.185Z,24.7
2022-08-07T15:35:16.753Z,24.6
2022-08-07T15:37:03.706Z,24.6
2022-08-07T15:38:30.353Z,24.6
2022-08-07T15:39:16.264Z,24.6
2022-08-07T15:40:33.888Z,24.6
2022-08-07T15:42:41.923Z,24.7
2022-08-07T15:43:33.257Z,24.6
2022-08-07T15:44:16.190Z,24.5
2022-08-07T15:45:19.412Z,24.5
2022-08-07T15:47:16.962Z,24.5
2022-08-07T15:48:20.398Z,24.5
2022-08-07T15:49:16.203Z,24.5
2022-08-07T15:51:16.190Z,24.3
2022-08-07T15:52:16.315Z,24.4
2022-08-07T15:53:16.185Z,24.5
2022-08-07T15:55:16.190Z,24.5
2022-08-07T15:56:16.195Z,24.3
2022-08-07T15:57:27.770Z,24.3
2022-08-07T15:59:17.292Z,24.3
2022-08-07T16:00:32.031Z,24.4
2022-08-07T16:01:20.066Z,24.3
2022-08-07T16:02:16.236Z,24.3
2022-08-07T16:03:21.422Z,24.3
2022-08-07T16:04:16.202Z,24.2
2022-08-07T16:05:16.263Z,24.2
2022-08-07T16:08:28.373Z,24.1
2022-08-07T16:09:22.751Z,24
2022-08-07T16:10:16.195Z,24
2022-08-07T16:12:25.156Z,24